Indianapolis, Indiana
Traffic Map
Current Weather Conditions
Indianapolis, Indiana
Broken Clouds
Broken Clouds
14°
Feels Like: 14°
Wind Chill: 14° Ceiling: 10000
Heat Index: 14° Visibility: 10mi
Dew Point: 11° Wind: 7mph
Humidity: 83% Direction: 230° (SW)
Pressure: 30.08in Gusts: 0mph
Raw Report DataKIND 270254Z 23006KT 10SM BKN100 BKN200 14/11 A3008 RMK AO2 SLP182 60000 T01390111 51004
Traffic Incident Summary
Active as of:
Severity:
Category:
InformationThere was an issue retrieving the traffic information for this location. Please try a different location or try again shortly.
Advertisements
Track Severe Weather on mobile